sensor_id;sensor_type;location;lat;lon;timestamp;P1;durP1;ratioP1;P2;durP2;ratioP2
31061;SDS011;17724;53.546;9.974;2024-03-02T00:00:53;17.27;;;13.30;;
31061;SDS011;17724;53.546;9.974;2024-03-02T00:04:54;16.93;;;12.17;;
31061;SDS011;17724;53.546;9.974;2024-03-02T00:08:56;20.20;;;13.40;;
31061;SDS011;17724;53.546;9.974;2024-03-02T00:13:00;16.47;;;12.33;;
31061;SDS011;17724;53.546;9.974;2024-03-02T00:17:00;16.53;;;12.67;;
31061;SDS011;17724;53.546;9.974;2024-03-02T00:21:01;18.23;;;14.27;;
31061;SDS011;17724;53.546;9.974;2024-03-02T00:25:03;15.40;;;12.37;;
31061;SDS011;17724;53.546;9.974;2024-03-02T00:29:04;17.80;;;12.47;;
31061;SDS011;17724;53.546;9.974;2024-03-02T00:33:07;17.97;;;14.00;;
31061;SDS011;17724;53.546;9.974;2024-03-02T00:37:08;18.33;;;14.17;;
31061;SDS011;17724;53.546;9.974;2024-03-02T00:41:11;18.80;;;14.37;;
31061;SDS011;17724;53.546;9.974;2024-03-02T00:45:36;20.63;;;15.20;;
31061;SDS011;17724;53.546;9.974;2024-03-02T00:49:40;20.77;;;14.87;;
31061;SDS011;17724;53.546;9.974;2024-03-02T00:53:41;18.47;;;15.03;;
31061;SDS011;17724;53.546;9.974;2024-03-02T00:57:41;20.97;;;16.70;;
31061;SDS011;17724;53.546;9.974;2024-03-02T01:01:44;21.70;;;15.47;;
31061;SDS011;17724;53.546;9.974;2024-03-02T01:05:45;20.83;;;16.37;;
31061;SDS011;17724;53.546;9.974;2024-03-02T01:09:45;20.87;;;15.00;;
31061;SDS011;17724;53.546;9.974;2024-03-02T01:13:46;22.83;;;17.33;;
31061;SDS011;17724;53.546;9.974;2024-03-02T01:17:46;22.57;;;18.07;;
31061;SDS011;17724;53.546;9.974;2024-03-02T01:21:47;22.60;;;18.77;;
31061;SDS011;17724;53.546;9.974;2024-03-02T01:25:47;26.53;;;18.77;;
31061;SDS011;17724;53.546;9.974;2024-03-02T01:29:48;24.47;;;18.57;;
31061;SDS011;17724;53.546;9.974;2024-03-02T01:33:48;26.60;;;19.67;;
31061;SDS011;17724;53.546;9.974;2024-03-02T01:37:49;24.00;;;18.17;;
31061;SDS011;17724;53.546;9.974;2024-03-02T01:41:49;28.53;;;21.00;;
31061;SDS011;17724;53.546;9.974;2024-03-02T01:45:50;28.60;;;20.97;;
31061;SDS011;17724;53.546;9.974;2024-03-02T01:49:50;27.20;;;21.20;;
31061;SDS011;17724;53.546;9.974;2024-03-02T01:53:51;27.07;;;21.20;;
31061;SDS011;17724;53.546;9.974;2024-03-02T01:57:52;27.30;;;20.53;;
31061;SDS011;17724;53.546;9.974;2024-03-02T02:01:53;26.37;;;19.47;;
31061;SDS011;17724;53.546;9.974;2024-03-02T02:05:53;25.47;;;19.40;;
31061;SDS011;17724;53.546;9.974;2024-03-02T02:09:54;27.77;;;19.57;;
31061;SDS011;17724;53.546;9.974;2024-03-02T02:13:54;26.43;;;18.80;;
31061;SDS011;17724;53.546;9.974;2024-03-02T02:17:56;27.20;;;19.37;;
31061;SDS011;17724;53.546;9.974;2024-03-02T02:21:57;25.13;;;19.30;;
31061;SDS011;17724;53.546;9.974;2024-03-02T02:25:58;24.57;;;19.87;;
31061;SDS011;17724;53.546;9.974;2024-03-02T02:29:59;24.63;;;18.80;;
31061;SDS011;17724;53.546;9.974;2024-03-02T02:34:01;26.93;;;19.33;;
31061;SDS011;17724;53.546;9.974;2024-03-02T02:38:01;26.23;;;19.70;;
31061;SDS011;17724;53.546;9.974;2024-03-02T02:42:03;27.50;;;20.60;;
31061;SDS011;17724;53.546;9.974;2024-03-02T02:46:04;27.03;;;20.60;;
31061;SDS011;17724;53.546;9.974;2024-03-02T02:50:06;27.37;;;20.60;;
31061;SDS011;17724;53.546;9.974;2024-03-02T02:54:07;27.43;;;20.20;;
31061;SDS011;17724;53.546;9.974;2024-03-02T02:58:08;27.63;;;20.10;;
31061;SDS011;17724;53.546;9.974;2024-03-02T03:02:08;28.70;;;21.03;;
31061;SDS011;17724;53.546;9.974;2024-03-02T03:06:09;25.40;;;19.90;;
31061;SDS011;17724;53.546;9.974;2024-03-02T03:10:10;26.83;;;20.77;;
31061;SDS011;17724;53.546;9.974;2024-03-02T03:14:11;29.47;;;20.97;;
31061;SDS011;17724;53.546;9.974;2024-03-02T03:18:11;24.23;;;19.33;;
31061;SDS011;17724;53.546;9.974;2024-03-02T03:22:12;27.90;;;20.73;;
31061;SDS011;17724;53.546;9.974;2024-03-02T03:26:13;25.77;;;19.83;;
31061;SDS011;17724;53.546;9.974;2024-03-02T03:30:13;25.57;;;18.47;;
31061;SDS011;17724;53.546;9.974;2024-03-02T03:34:14;26.37;;;19.77;;
31061;SDS011;17724;53.546;9.974;2024-03-02T03:38:16;24.77;;;18.83;;
31061;SDS011;17724;53.546;9.974;2024-03-02T03:42:16;25.63;;;20.23;;
31061;SDS011;17724;53.546;9.974;2024-03-02T03:46:17;27.17;;;20.57;;
31061;SDS011;17724;53.546;9.974;2024-03-02T03:50:17;24.83;;;18.80;;
31061;SDS011;17724;53.546;9.974;2024-03-02T03:54:18;24.07;;;18.80;;
31061;SDS011;17724;53.546;9.974;2024-03-02T03:58:18;24.97;;;18.43;;
31061;SDS011;17724;53.546;9.974;2024-03-02T04:02:20;25.80;;;19.27;;
31061;SDS011;17724;53.546;9.974;2024-03-02T04:06:21;24.80;;;18.40;;
31061;SDS011;17724;53.546;9.974;2024-03-02T04:10:21;25.37;;;18.83;;
31061;SDS011;17724;53.546;9.974;2024-03-02T04:14:22;22.60;;;17.30;;
31061;SDS011;17724;53.546;9.974;2024-03-02T04:18:23;26.70;;;19.53;;
31061;SDS011;17724;53.546;9.974;2024-03-02T04:22:24;22.73;;;18.00;;
31061;SDS011;17724;53.546;9.974;2024-03-02T04:26:24;24.90;;;18.43;;
31061;SDS011;17724;53.546;9.974;2024-03-02T04:30:25;24.40;;;19.87;;
31061;SDS011;17724;53.546;9.974;2024-03-02T04:34:26;21.70;;;16.47;;
31061;SDS011;17724;53.546;9.974;2024-03-02T04:38:27;23.03;;;17.67;;
31061;SDS011;17724;53.546;9.974;2024-03-02T04:42:29;26.27;;;20.60;;
31061;SDS011;17724;53.546;9.974;2024-03-02T04:46:29;24.43;;;18.87;;
31061;SDS011;17724;53.546;9.974;2024-03-02T04:50:29;25.33;;;18.87;;
31061;SDS011;17724;53.546;9.974;2024-03-02T04:54:30;23.63;;;18.53;;
31061;SDS011;17724;53.546;9.974;2024-03-02T04:58:30;25.33;;;18.50;;
31061;SDS011;17724;53.546;9.974;2024-03-02T05:02:31;24.10;;;18.30;;
31061;SDS011;17724;53.546;9.974;2024-03-02T05:06:31;22.93;;;19.37;;
31061;SDS011;17724;53.546;9.974;2024-03-02T05:10:32;23.50;;;19.17;;
31061;SDS011;17724;53.546;9.974;2024-03-02T05:14:32;26.07;;;18.70;;
31061;SDS011;17724;53.546;9.974;2024-03-02T05:18:33;25.90;;;19.23;;
31061;SDS011;17724;53.546;9.974;2024-03-02T05:22:33;21.90;;;17.83;;
31061;SDS011;17724;53.546;9.974;2024-03-02T05:26:34;24.67;;;19.30;;
31061;SDS011;17724;53.546;9.974;2024-03-02T05:30:35;23.03;;;17.90;;
31061;SDS011;17724;53.546;9.974;2024-03-02T05:34:35;24.47;;;18.67;;
31061;SDS011;17724;53.546;9.974;2024-03-02T05:38:36;24.27;;;17.63;;
31061;SDS011;17724;53.546;9.974;2024-03-02T05:42:37;28.43;;;18.00;;
31061;SDS011;17724;53.546;9.974;2024-03-02T05:46:38;25.70;;;19.00;;
31061;SDS011;17724;53.546;9.974;2024-03-02T05:50:38;22.80;;;17.40;;
31061;SDS011;17724;53.546;9.974;2024-03-02T05:54:39;25.60;;;19.80;;
31061;SDS011;17724;53.546;9.974;2024-03-02T05:58:40;22.47;;;17.77;;
31061;SDS011;17724;53.546;9.974;2024-03-02T06:02:53;24.10;;;18.13;;
31061;SDS011;17724;53.546;9.974;2024-03-02T06:06:53;27.00;;;18.30;;
31061;SDS011;17724;53.546;9.974;2024-03-02T06:10:56;22.23;;;17.90;;
31061;SDS011;17724;53.546;9.974;2024-03-02T06:14:57;23.03;;;17.30;;
31061;SDS011;17724;53.546;9.974;2024-03-02T06:18:57;25.23;;;18.30;;
31061;SDS011;17724;53.546;9.974;2024-03-02T06:22:58;22.33;;;17.60;;
31061;SDS011;17724;53.546;9.974;2024-03-02T06:26:59;24.37;;;17.20;;
31061;SDS011;17724;53.546;9.974;2024-03-02T06:30:59;24.63;;;17.10;;
31061;SDS011;17724;53.546;9.974;2024-03-02T06:35:00;23.87;;;18.53;;
31061;SDS011;17724;53.546;9.974;2024-03-02T06:39:00;28.03;;;19.53;;
31061;SDS011;17724;53.546;9.974;2024-03-02T06:43:01;26.07;;;19.70;;
31061;SDS011;17724;53.546;9.974;2024-03-02T06:47:01;22.93;;;17.50;;
31061;SDS011;17724;53.546;9.974;2024-03-02T06:51:02;25.53;;;17.93;;
31061;SDS011;17724;53.546;9.974;2024-03-02T06:55:02;23.03;;;17.63;;
31061;SDS011;17724;53.546;9.974;2024-03-02T06:59:04;24.50;;;16.30;;
31061;SDS011;17724;53.546;9.974;2024-03-02T07:03:04;22.93;;;16.87;;
31061;SDS011;17724;53.546;9.974;2024-03-02T07:07:05;23.77;;;17.53;;
31061;SDS011;17724;53.546;9.974;2024-03-02T07:11:05;22.17;;;16.53;;
31061;SDS011;17724;53.546;9.974;2024-03-02T07:15:06;22.53;;;17.23;;
31061;SDS011;17724;53.546;9.974;2024-03-02T07:19:07;21.03;;;16.20;;
31061;SDS011;17724;53.546;9.974;2024-03-02T07:23:07;21.70;;;16.17;;
31061;SDS011;17724;53.546;9.974;2024-03-02T07:27:11;20.40;;;16.27;;
31061;SDS011;17724;53.546;9.974;2024-03-02T07:31:13;23.07;;;18.43;;
31061;SDS011;17724;53.546;9.974;2024-03-02T07:35:14;22.30;;;17.63;;
31061;SDS011;17724;53.546;9.974;2024-03-02T07:39:14;24.80;;;17.17;;
31061;SDS011;17724;53.546;9.974;2024-03-02T07:43:16;21.53;;;17.87;;
31061;SDS011;17724;53.546;9.974;2024-03-02T07:47:17;20.20;;;17.27;;
31061;SDS011;17724;53.546;9.974;2024-03-02T07:51:18;20.80;;;17.43;;
31061;SDS011;17724;53.546;9.974;2024-03-02T07:55:18;22.13;;;15.40;;
31061;SDS011;17724;53.546;9.974;2024-03-02T07:59:19;21.40;;;15.90;;
31061;SDS011;17724;53.546;9.974;2024-03-02T08:03:22;21.50;;;16.50;;
31061;SDS011;17724;53.546;9.974;2024-03-02T08:07:22;21.47;;;17.30;;
31061;SDS011;17724;53.546;9.974;2024-03-02T08:11:23;24.50;;;17.57;;
31061;SDS011;17724;53.546;9.974;2024-03-02T08:15:23;22.80;;;17.13;;
31061;SDS011;17724;53.546;9.974;2024-03-02T08:19:24;23.00;;;16.60;;
31061;SDS011;17724;53.546;9.974;2024-03-02T08:23:24;22.77;;;16.57;;
31061;SDS011;17724;53.546;9.974;2024-03-02T08:27:25;25.10;;;16.60;;
31061;SDS011;17724;53.546;9.974;2024-03-02T08:31:26;20.07;;;16.57;;
31061;SDS011;17724;53.546;9.974;2024-03-02T08:35:26;23.10;;;19.20;;
31061;SDS011;17724;53.546;9.974;2024-03-02T08:39:28;22.43;;;16.57;;
31061;SDS011;17724;53.546;9.974;2024-03-02T08:43:28;24.33;;;17.53;;
31061;SDS011;17724;53.546;9.974;2024-03-02T08:47:30;21.30;;;16.90;;
31061;SDS011;17724;53.546;9.974;2024-03-02T08:51:30;21.40;;;16.43;;
31061;SDS011;17724;53.546;9.974;2024-03-02T08:55:30;20.47;;;15.50;;
31061;SDS011;17724;53.546;9.974;2024-03-02T08:59:31;19.87;;;15.83;;
31061;SDS011;17724;53.546;9.974;2024-03-02T09:03:31;19.37;;;15.30;;
31061;SDS011;17724;53.546;9.974;2024-03-02T09:07:33;21.03;;;15.90;;
31061;SDS011;17724;53.546;9.974;2024-03-02T09:11:33;19.90;;;16.53;;
31061;SDS011;17724;53.546;9.974;2024-03-02T09:15:34;22.00;;;15.60;;
31061;SDS011;17724;53.546;9.974;2024-03-02T09:19:37;19.70;;;15.90;;
31061;SDS011;17724;53.546;9.974;2024-03-02T09:23:38;20.70;;;15.33;;
31061;SDS011;17724;53.546;9.974;2024-03-02T09:27:40;21.17;;;15.67;;
31061;SDS011;17724;53.546;9.974;2024-03-02T09:31:41;20.60;;;15.30;;
31061;SDS011;17724;53.546;9.974;2024-03-02T09:35:42;20.40;;;15.03;;
31061;SDS011;17724;53.546;9.974;2024-03-02T09:39:43;20.43;;;15.40;;
31061;SDS011;17724;53.546;9.974;2024-03-02T09:43:44;19.10;;;14.80;;
31061;SDS011;17724;53.546;9.974;2024-03-02T09:47:45;19.20;;;15.23;;
31061;SDS011;17724;53.546;9.974;2024-03-02T09:51:46;19.87;;;15.33;;
31061;SDS011;17724;53.546;9.974;2024-03-02T09:55:48;18.47;;;15.40;;
31061;SDS011;17724;53.546;9.974;2024-03-02T09:59:49;16.80;;;13.57;;
31061;SDS011;17724;53.546;9.974;2024-03-02T10:03:49;17.80;;;14.73;;
31061;SDS011;17724;53.546;9.974;2024-03-02T10:08:02;17.50;;;13.17;;
31061;SDS011;17724;53.546;9.974;2024-03-02T10:12:04;18.47;;;14.10;;
31061;SDS011;17724;53.546;9.974;2024-03-02T10:16:12;16.30;;;12.60;;
31061;SDS011;17724;53.546;9.974;2024-03-02T10:20:25;16.70;;;13.10;;
31061;SDS011;17724;53.546;9.974;2024-03-02T10:24:34;19.30;;;13.60;;
31061;SDS011;17724;53.546;9.974;2024-03-02T10:28:48;17.93;;;13.87;;
31061;SDS011;17724;53.546;9.974;2024-03-02T10:32:49;29.23;;;23.60;;
31061;SDS011;17724;53.546;9.974;2024-03-02T10:36:50;19.93;;;15.37;;
31061;SDS011;17724;53.546;9.974;2024-03-02T10:40:51;22.77;;;16.73;;
31061;SDS011;17724;53.546;9.974;2024-03-02T10:44:53;16.53;;;12.20;;
31061;SDS011;17724;53.546;9.974;2024-03-02T10:48:54;14.10;;;10.60;;
31061;SDS011;17724;53.546;9.974;2024-03-02T10:52:55;14.70;;;10.97;;
31061;SDS011;17724;53.546;9.974;2024-03-02T10:56:57;16.33;;;11.60;;
31061;SDS011;17724;53.546;9.974;2024-03-02T11:01:03;14.73;;;10.27;;
31061;SDS011;17724;53.546;9.974;2024-03-02T11:05:04;14.70;;;10.17;;
31061;SDS011;17724;53.546;9.974;2024-03-02T11:09:08;14.47;;;10.40;;
31061;SDS011;17724;53.546;9.974;2024-03-02T11:13:11;14.20;;;9.67;;
31061;SDS011;17724;53.546;9.974;2024-03-02T11:17:13;11.97;;;8.60;;
31061;SDS011;17724;53.546;9.974;2024-03-02T11:21:18;24.07;;;16.60;;
31061;SDS011;17724;53.546;9.974;2024-03-02T11:25:23;13.93;;;9.33;;
31061;SDS011;17724;53.546;9.974;2024-03-02T11:33:35;18.10;;;10.10;;
31061;SDS011;17724;53.546;9.974;2024-03-02T11:37:35;13.23;;;8.53;;
31061;SDS011;17724;53.546;9.974;2024-03-02T11:41:36;12.10;;;9.07;;
31061;SDS011;17724;53.546;9.974;2024-03-02T11:45:37;11.90;;;7.47;;
31061;SDS011;17724;53.546;9.974;2024-03-02T11:49:43;12.30;;;8.60;;
31061;SDS011;17724;53.546;9.974;2024-03-02T11:53:45;9.00;;;6.67;;
31061;SDS011;17724;53.546;9.974;2024-03-02T11:57:48;11.73;;;8.33;;
31061;SDS011;17724;53.546;9.974;2024-03-02T12:01:50;15.03;;;10.37;;
31061;SDS011;17724;53.546;9.974;2024-03-02T12:05:51;10.67;;;7.50;;
31061;SDS011;17724;53.546;9.974;2024-03-02T12:09:59;11.80;;;7.30;;
31061;SDS011;17724;53.546;9.974;2024-03-02T12:14:01;10.83;;;7.50;;
31061;SDS011;17724;53.546;9.974;2024-03-02T12:18:02;13.00;;;8.47;;
31061;SDS011;17724;53.546;9.974;2024-03-02T12:22:03;11.10;;;7.80;;
31061;SDS011;17724;53.546;9.974;2024-03-02T12:26:06;11.53;;;8.00;;
31061;SDS011;17724;53.546;9.974;2024-03-02T12:30:06;11.27;;;7.47;;
31061;SDS011;17724;53.546;9.974;2024-03-02T12:34:14;10.40;;;6.57;;
31061;SDS011;17724;53.546;9.974;2024-03-02T12:38:17;11.93;;;6.47;;
31061;SDS011;17724;53.546;9.974;2024-03-02T12:42:18;11.90;;;6.97;;
31061;SDS011;17724;53.546;9.974;2024-03-02T12:46:18;11.03;;;6.20;;
31061;SDS011;17724;53.546;9.974;2024-03-02T12:50:19;10.47;;;6.43;;
31061;SDS011;17724;53.546;9.974;2024-03-02T12:54:21;12.90;;;9.73;;
31061;SDS011;17724;53.546;9.974;2024-03-02T12:58:22;9.73;;;6.40;;
31061;SDS011;17724;53.546;9.974;2024-03-02T13:02:30;9.07;;;5.87;;
31061;SDS011;17724;53.546;9.974;2024-03-02T13:06:32;10.27;;;7.10;;
31061;SDS011;17724;53.546;9.974;2024-03-02T13:10:37;12.40;;;7.93;;
31061;SDS011;17724;53.546;9.974;2024-03-02T13:14:41;12.63;;;7.53;;
31061;SDS011;17724;53.546;9.974;2024-03-02T13:18:42;10.37;;;7.00;;
31061;SDS011;17724;53.546;9.974;2024-03-02T13:22:44;11.10;;;7.67;;
31061;SDS011;17724;53.546;9.974;2024-03-02T13:26:48;13.40;;;9.93;;
31061;SDS011;17724;53.546;9.974;2024-03-02T13:30:48;11.30;;;7.93;;
31061;SDS011;17724;53.546;9.974;2024-03-02T13:34:49;11.13;;;7.80;;
31061;SDS011;17724;53.546;9.974;2024-03-02T13:38:50;10.20;;;7.20;;
31061;SDS011;17724;53.546;9.974;2024-03-02T13:42:52;11.40;;;7.20;;
31061;SDS011;17724;53.546;9.974;2024-03-02T13:46:54;12.30;;;8.80;;
31061;SDS011;17724;53.546;9.974;2024-03-02T13:50:55;14.17;;;9.30;;
31061;SDS011;17724;53.546;9.974;2024-03-02T13:54:59;12.40;;;8.57;;
31061;SDS011;17724;53.546;9.974;2024-03-02T13:59:00;11.33;;;7.83;;
31061;SDS011;17724;53.546;9.974;2024-03-02T14:03:01;11.20;;;8.07;;
31061;SDS011;17724;53.546;9.974;2024-03-02T14:07:07;16.10;;;13.43;;
31061;SDS011;17724;53.546;9.974;2024-03-02T14:11:08;10.87;;;7.60;;
31061;SDS011;17724;53.546;9.974;2024-03-02T14:15:11;11.33;;;7.80;;
31061;SDS011;17724;53.546;9.974;2024-03-02T14:19:15;12.00;;;9.10;;
31061;SDS011;17724;53.546;9.974;2024-03-02T14:23:22;13.63;;;10.20;;
31061;SDS011;17724;53.546;9.974;2024-03-02T14:27:22;17.37;;;11.87;;
31061;SDS011;17724;53.546;9.974;2024-03-02T14:31:29;11.67;;;9.07;;
31061;SDS011;17724;53.546;9.974;2024-03-02T14:35:32;11.90;;;9.03;;
31061;SDS011;17724;53.546;9.974;2024-03-02T14:39:33;12.20;;;8.47;;
31061;SDS011;17724;53.546;9.974;2024-03-02T14:43:39;13.30;;;9.60;;
31061;SDS011;17724;53.546;9.974;2024-03-02T14:47:40;12.23;;;8.57;;
31061;SDS011;17724;53.546;9.974;2024-03-02T14:51:41;10.53;;;7.33;;
31061;SDS011;17724;53.546;9.974;2024-03-02T14:55:41;10.53;;;7.10;;
31061;SDS011;17724;53.546;9.974;2024-03-02T14:59:42;9.70;;;6.17;;
31061;SDS011;17724;53.546;9.974;2024-03-02T15:03:43;9.07;;;6.13;;
31061;SDS011;17724;53.546;9.974;2024-03-02T15:07:44;10.20;;;6.47;;
31061;SDS011;17724;53.546;9.974;2024-03-02T15:11:44;11.67;;;6.67;;
31061;SDS011;17724;53.546;9.974;2024-03-02T15:15:45;13.60;;;8.27;;
31061;SDS011;17724;53.546;9.974;2024-03-02T15:19:46;10.80;;;5.53;;
31061;SDS011;17724;53.546;9.974;2024-03-02T15:23:46;10.87;;;7.20;;
31061;SDS011;17724;53.546;9.974;2024-03-02T15:27:47;11.20;;;7.77;;
31061;SDS011;17724;53.546;9.974;2024-03-02T15:31:48;14.30;;;9.53;;
31061;SDS011;17724;53.546;9.974;2024-03-02T15:35:48;14.23;;;8.57;;
31061;SDS011;17724;53.546;9.974;2024-03-02T15:39:49;11.70;;;8.33;;
31061;SDS011;17724;53.546;9.974;2024-03-02T15:43:50;13.93;;;9.63;;
31061;SDS011;17724;53.546;9.974;2024-03-02T15:47:50;13.00;;;9.97;;
31061;SDS011;17724;53.546;9.974;2024-03-02T15:51:51;13.50;;;9.33;;
31061;SDS011;17724;53.546;9.974;2024-03-02T15:55:51;12.20;;;8.70;;
31061;SDS011;17724;53.546;9.974;2024-03-02T15:59:52;12.53;;;9.17;;
31061;SDS011;17724;53.546;9.974;2024-03-02T16:03:53;15.60;;;12.77;;
31061;SDS011;17724;53.546;9.974;2024-03-02T16:07:54;15.80;;;11.73;;
31061;SDS011;17724;53.546;9.974;2024-03-02T16:11:55;14.47;;;10.17;;
31061;SDS011;17724;53.546;9.974;2024-03-02T16:15:55;12.57;;;9.07;;
31061;SDS011;17724;53.546;9.974;2024-03-02T16:19:56;14.47;;;10.93;;
31061;SDS011;17724;53.546;9.974;2024-03-02T16:23:58;16.10;;;9.90;;
31061;SDS011;17724;53.546;9.974;2024-03-02T16:27:59;15.77;;;12.20;;
31061;SDS011;17724;53.546;9.974;2024-03-02T16:32:02;14.70;;;10.50;;
31061;SDS011;17724;53.546;9.974;2024-03-02T16:36:04;18.57;;;11.80;;
31061;SDS011;17724;53.546;9.974;2024-03-02T16:40:05;14.03;;;10.27;;
31061;SDS011;17724;53.546;9.974;2024-03-02T16:44:06;14.70;;;9.10;;
31061;SDS011;17724;53.546;9.974;2024-03-02T16:48:07;14.03;;;8.87;;
31061;SDS011;17724;53.546;9.974;2024-03-02T16:52:08;15.80;;;10.90;;
31061;SDS011;17724;53.546;9.974;2024-03-02T16:56:08;12.87;;;9.20;;
31061;SDS011;17724;53.546;9.974;2024-03-02T17:00:09;14.10;;;10.80;;
31061;SDS011;17724;53.546;9.974;2024-03-02T17:04:13;15.17;;;10.20;;
31061;SDS011;17724;53.546;9.974;2024-03-02T17:08:13;13.50;;;10.43;;
31061;SDS011;17724;53.546;9.974;2024-03-02T17:12:14;18.13;;;11.27;;
31061;SDS011;17724;53.546;9.974;2024-03-02T17:16:15;14.67;;;10.00;;
31061;SDS011;17724;53.546;9.974;2024-03-02T17:20:15;15.43;;;10.40;;
31061;SDS011;17724;53.546;9.974;2024-03-02T17:24:16;14.00;;;10.03;;
31061;SDS011;17724;53.546;9.974;2024-03-02T17:32:25;15.80;;;10.17;;
31061;SDS011;17724;53.546;9.974;2024-03-02T17:36:26;14.53;;;10.70;;
31061;SDS011;17724;53.546;9.974;2024-03-02T17:40:26;14.10;;;9.77;;
31061;SDS011;17724;53.546;9.974;2024-03-02T17:44:27;14.10;;;9.70;;
31061;SDS011;17724;53.546;9.974;2024-03-02T17:48:27;13.70;;;8.80;;
31061;SDS011;17724;53.546;9.974;2024-03-02T17:52:28;12.07;;;7.73;;
31061;SDS011;17724;53.546;9.974;2024-03-02T17:56:29;13.43;;;8.70;;
31061;SDS011;17724;53.546;9.974;2024-03-02T18:00:30;13.50;;;8.50;;
31061;SDS011;17724;53.546;9.974;2024-03-02T18:04:31;13.40;;;9.97;;
31061;SDS011;17724;53.546;9.974;2024-03-02T18:08:31;24.80;;;18.67;;
31061;SDS011;17724;53.546;9.974;2024-03-02T18:12:32;15.53;;;11.33;;
31061;SDS011;17724;53.546;9.974;2024-03-02T18:16:32;16.50;;;12.17;;
31061;SDS011;17724;53.546;9.974;2024-03-02T18:20:33;13.30;;;10.17;;
31061;SDS011;17724;53.546;9.974;2024-03-02T18:24:34;13.10;;;9.20;;
31061;SDS011;17724;53.546;9.974;2024-03-02T18:28:35;14.13;;;10.13;;
31061;SDS011;17724;53.546;9.974;2024-03-02T18:32:38;12.43;;;9.57;;
31061;SDS011;17724;53.546;9.974;2024-03-02T18:36:39;15.37;;;10.80;;
31061;SDS011;17724;53.546;9.974;2024-03-02T18:40:40;19.80;;;12.67;;
31061;SDS011;17724;53.546;9.974;2024-03-02T18:44:42;16.90;;;12.67;;
31061;SDS011;17724;53.546;9.974;2024-03-02T18:48:42;17.00;;;13.50;;
31061;SDS011;17724;53.546;9.974;2024-03-02T18:52:44;21.63;;;14.93;;
31061;SDS011;17724;53.546;9.974;2024-03-02T18:56:44;16.40;;;12.20;;
31061;SDS011;17724;53.546;9.974;2024-03-02T19:00:45;18.20;;;12.60;;
31061;SDS011;17724;53.546;9.974;2024-03-02T19:04:45;19.90;;;15.53;;
31061;SDS011;17724;53.546;9.974;2024-03-02T19:08:47;29.00;;;26.00;;
31061;SDS011;17724;53.546;9.974;2024-03-02T19:12:48;21.43;;;16.27;;
31061;SDS011;17724;53.546;9.974;2024-03-02T19:16:49;18.70;;;16.10;;
31061;SDS011;17724;53.546;9.974;2024-03-02T19:20:50;20.20;;;16.47;;
31061;SDS011;17724;53.546;9.974;2024-03-02T19:24:51;20.83;;;17.97;;
31061;SDS011;17724;53.546;9.974;2024-03-02T19:28:52;24.80;;;21.20;;
31061;SDS011;17724;53.546;9.974;2024-03-02T19:32:52;23.60;;;20.77;;
31061;SDS011;17724;53.546;9.974;2024-03-02T19:36:53;18.03;;;14.53;;
31061;SDS011;17724;53.546;9.974;2024-03-02T19:40:55;17.80;;;14.27;;
31061;SDS011;17724;53.546;9.974;2024-03-02T19:44:56;19.33;;;16.53;;
31061;SDS011;17724;53.546;9.974;2024-03-02T19:48:57;18.17;;;15.57;;
31061;SDS011;17724;53.546;9.974;2024-03-02T19:52:57;22.00;;;17.63;;
31061;SDS011;17724;53.546;9.974;2024-03-02T19:56:58;24.20;;;15.60;;
31061;SDS011;17724;53.546;9.974;2024-03-02T20:00:58;22.10;;;15.83;;
31061;SDS011;17724;53.546;9.974;2024-03-02T20:05:00;18.13;;;15.00;;
31061;SDS011;17724;53.546;9.974;2024-03-02T20:09:00;20.50;;;15.37;;
31061;SDS011;17724;53.546;9.974;2024-03-02T20:13:01;19.40;;;14.87;;
31061;SDS011;17724;53.546;9.974;2024-03-02T20:17:05;18.37;;;15.50;;
31061;SDS011;17724;53.546;9.974;2024-03-02T20:21:05;18.60;;;14.87;;
31061;SDS011;17724;53.546;9.974;2024-03-02T20:25:06;19.33;;;14.57;;
31061;SDS011;17724;53.546;9.974;2024-03-02T20:29:07;20.40;;;16.40;;
31061;SDS011;17724;53.546;9.974;2024-03-02T20:33:07;18.63;;;14.73;;
31061;SDS011;17724;53.546;9.974;2024-03-02T20:37:11;21.43;;;15.17;;
31061;SDS011;17724;53.546;9.974;2024-03-02T20:41:15;19.77;;;14.50;;
31061;SDS011;17724;53.546;9.974;2024-03-02T20:45:16;18.30;;;14.77;;
31061;SDS011;17724;53.546;9.974;2024-03-02T20:49:18;17.50;;;14.07;;
31061;SDS011;17724;53.546;9.974;2024-03-02T20:53:20;16.23;;;13.50;;
31061;SDS011;17724;53.546;9.974;2024-03-02T20:57:20;17.90;;;14.80;;
31061;SDS011;17724;53.546;9.974;2024-03-02T21:01:21;20.50;;;14.53;;
31061;SDS011;17724;53.546;9.974;2024-03-02T21:05:21;18.37;;;13.27;;
31061;SDS011;17724;53.546;9.974;2024-03-02T21:09:23;18.30;;;14.73;;
31061;SDS011;17724;53.546;9.974;2024-03-02T21:13:25;19.27;;;14.13;;
31061;SDS011;17724;53.546;9.974;2024-03-02T21:17:25;18.23;;;14.27;;
31061;SDS011;17724;53.546;9.974;2024-03-02T21:21:27;17.40;;;13.30;;
31061;SDS011;17724;53.546;9.974;2024-03-02T21:25:28;18.43;;;14.90;;
31061;SDS011;17724;53.546;9.974;2024-03-02T21:29:33;17.07;;;13.47;;
31061;SDS011;17724;53.546;9.974;2024-03-02T21:33:34;17.13;;;13.27;;
31061;SDS011;17724;53.546;9.974;2024-03-02T21:37:34;16.60;;;12.87;;
31061;SDS011;17724;53.546;9.974;2024-03-02T21:41:35;15.30;;;12.17;;
31061;SDS011;17724;53.546;9.974;2024-03-02T21:45:36;16.97;;;13.73;;
31061;SDS011;17724;53.546;9.974;2024-03-02T21:49:37;23.00;;;17.40;;
31061;SDS011;17724;53.546;9.974;2024-03-02T21:53:37;17.77;;;13.70;;
31061;SDS011;17724;53.546;9.974;2024-03-02T21:57:38;20.43;;;13.93;;
31061;SDS011;17724;53.546;9.974;2024-03-02T22:01:39;16.03;;;12.93;;
31061;SDS011;17724;53.546;9.974;2024-03-02T22:05:39;16.73;;;12.57;;
31061;SDS011;17724;53.546;9.974;2024-03-02T22:09:41;16.33;;;12.37;;
31061;SDS011;17724;53.546;9.974;2024-03-02T22:13:41;15.33;;;12.17;;
31061;SDS011;17724;53.546;9.974;2024-03-02T22:17:42;16.40;;;12.80;;
31061;SDS011;17724;53.546;9.974;2024-03-02T22:21:42;14.77;;;11.53;;
31061;SDS011;17724;53.546;9.974;2024-03-02T22:25:43;15.77;;;11.93;;
31061;SDS011;17724;53.546;9.974;2024-03-02T22:29:44;17.00;;;12.60;;
31061;SDS011;17724;53.546;9.974;2024-03-02T22:33:45;22.37;;;18.07;;
31061;SDS011;17724;53.546;9.974;2024-03-02T22:37:45;17.13;;;15.30;;
31061;SDS011;17724;53.546;9.974;2024-03-02T22:41:46;20.07;;;14.37;;
31061;SDS011;17724;53.546;9.974;2024-03-02T22:45:46;15.57;;;11.80;;
31061;SDS011;17724;53.546;9.974;2024-03-02T22:49:47;16.47;;;11.70;;
31061;SDS011;17724;53.546;9.974;2024-03-02T22:53:48;15.93;;;11.60;;
31061;SDS011;17724;53.546;9.974;2024-03-02T22:57:48;14.63;;;10.97;;
31061;SDS011;17724;53.546;9.974;2024-03-02T23:01:49;16.50;;;12.83;;
31061;SDS011;17724;53.546;9.974;2024-03-02T23:05:49;16.67;;;12.00;;
31061;SDS011;17724;53.546;9.974;2024-03-02T23:09:50;15.90;;;12.17;;
31061;SDS011;17724;53.546;9.974;2024-03-02T23:13:50;18.97;;;12.53;;
31061;SDS011;17724;53.546;9.974;2024-03-02T23:17:51;15.40;;;11.80;;
31061;SDS011;17724;53.546;9.974;2024-03-02T23:21:51;18.13;;;12.83;;
31061;SDS011;17724;53.546;9.974;2024-03-02T23:25:52;16.20;;;11.30;;
31061;SDS011;17724;53.546;9.974;2024-03-02T23:29:52;15.20;;;12.03;;
31061;SDS011;17724;53.546;9.974;2024-03-02T23:33:53;15.30;;;11.83;;
31061;SDS011;17724;53.546;9.974;2024-03-02T23:37:55;17.60;;;13.00;;
31061;SDS011;17724;53.546;9.974;2024-03-02T23:41:55;15.40;;;12.13;;